Terminal Aerodrome Forecast
Issued by NWS

Home | Current Version | Previous Version | Graphics & Text | Print | Product List | Glossary On
Versions: 1 2 3 4 5 6 7 8 9 10 11 12 13 14 15
000
FTUS43 KGRB 260340 AAA
TAFATW
TAF AMD
KATW 260340Z 2604/2624 32005KT P6SM SCT025 OVC030
     FM260900 30005KT P6SM SCT025 BKN035
      TEMPO 2609/2613 SCT035
     FM261400 33006KT P6SM SCT028 BKN035
     FM262000 33006KT P6SM SCT045=

USA.gov is the U.S. government's official web portal to all federal, state and local government web resources and services.